createdAt,value
2022-10-23T00:01:51.227Z,100031.60
2022-10-23T00:04:23.217Z,100030.40
2022-10-23T00:06:51.658Z,100026.80
2022-10-23T00:09:24.078Z,100018.20
2022-10-23T00:11:53.105Z,100015.00
2022-10-23T00:14:25.229Z,100010.60
2022-10-23T00:16:53.184Z,100008.40
2022-10-23T00:19:21.074Z,99999.60
2022-10-23T00:21:49.155Z,100006.20
2022-10-23T00:24:17.160Z,100001.40
2022-10-23T00:26:45.015Z,100007.20
2022-10-23T00:29:12.925Z,99998.80
2022-10-23T00:31:40.780Z,99995.00
2022-10-23T00:34:09.308Z,99989.80
2022-10-23T00:36:37.539Z,99981.60
2022-10-23T00:39:06.009Z,99987.00
2022-10-23T00:41:34.059Z,99984.60
2022-10-23T00:44:30.628Z,99978.80
2022-10-23T00:46:59.949Z,99973.20
2022-10-23T00:49:28.438Z,99976.80
2022-10-23T00:52:02.201Z,99972.00
2022-10-23T00:54:37.325Z,99961.00
2022-10-23T00:57:11.544Z,99957.80
2022-10-23T00:59:40.867Z,99955.80
2022-10-23T01:02:09.419Z,99958.80
2022-10-23T01:04:38.395Z,99958.60
2022-10-23T01:07:17.492Z,99955.60
2022-10-23T01:09:48.696Z,99949.40
2022-10-23T01:12:45.300Z,99945.40
2022-10-23T01:15:31.026Z,99951.60
2022-10-23T01:18:30.076Z,99946.00
2022-10-23T01:21:08.627Z,99939.80
2022-10-23T01:23:57.832Z,99933.60
2022-10-23T01:27:01.090Z,99937.00
2022-10-23T01:29:51.787Z,99934.80
2022-10-23T01:32:35.159Z,99927.40
2022-10-23T01:35:21.427Z,99920.00
2022-10-23T01:38:12.827Z,99919.40
2022-10-23T01:41:05.862Z,99918.00
2022-10-23T01:44:07.270Z,99907.40
2022-10-23T01:46:37.608Z,99897.80
2022-10-23T01:49:12.904Z,99895.80
2022-10-23T01:51:49.809Z,99889.00
2022-10-23T01:54:23.674Z,99888.00
2022-10-23T01:56:53.080Z,99876.00
2022-10-23T01:59:35.265Z,99876.80
2022-10-23T02:02:05.108Z,99866.20
2022-10-23T02:04:55.632Z,99855.80
2022-10-23T02:07:24.308Z,99850.80
2022-10-23T02:09:52.713Z,99851.00
2022-10-23T02:12:35.959Z,99840.00
2022-10-23T02:15:19.408Z,99838.00
2022-10-23T02:18:19.099Z,99832.40
2022-10-23T02:20:59.049Z,99823.00
2022-10-23T02:23:38.920Z,99810.80
2022-10-23T02:26:41.061Z,99825.00
2022-10-23T02:29:21.275Z,99798.00
2022-10-23T02:31:49.605Z,99803.40
2022-10-23T02:34:19.717Z,99820.80
2022-10-23T02:36:47.987Z,99828.60
2022-10-23T02:39:15.887Z,99816.00
2022-10-23T02:41:57.795Z,99813.00
2022-10-23T02:45:07.099Z,99799.60
2022-10-23T02:47:46.060Z,99787.80
2022-10-23T02:50:38.907Z,99773.00
2022-10-23T02:53:12.289Z,99762.60
2022-10-23T02:56:04.448Z,99758.00
2022-10-23T02:58:56.728Z,99761.40
2022-10-23T03:01:58.218Z,99767.00
2022-10-23T03:04:29.574Z,99745.40
2022-10-23T03:06:57.979Z,99745.20
2022-10-23T03:09:27.317Z,99741.80
2022-10-23T03:11:55.197Z,99741.20
2022-10-23T03:14:23.151Z,99743.20
2022-10-23T03:16:51.241Z,99743.40
2022-10-23T03:19:19.077Z,99727.40
2022-10-23T03:21:46.972Z,99717.80
2022-10-23T03:24:15.042Z,99709.80
2022-10-23T03:26:44.255Z,99710.00
2022-10-23T03:29:12.256Z,99699.80
2022-10-23T03:31:45.531Z,99694.40
2022-10-23T03:34:15.094Z,99676.00
2022-10-23T03:36:43.383Z,99663.60
2022-10-23T03:39:11.465Z,99668.40
2022-10-23T03:41:39.341Z,99655.20
2022-10-23T03:44:07.216Z,99650.40
2022-10-23T03:46:35.051Z,99644.00
2022-10-23T03:49:03.064Z,99642.40
2022-10-23T03:51:30.984Z,99637.40
2022-10-23T03:53:58.807Z,99632.80
2022-10-23T03:56:26.892Z,99626.00
2022-10-23T03:58:54.901Z,99623.80
2022-10-23T04:01:25.630Z,99620.60
2022-10-23T04:03:53.803Z,99613.80
2022-10-23T04:06:21.747Z,99605.20
2022-10-23T04:08:50.315Z,99604.40
2022-10-23T04:11:18.704Z,99601.80
2022-10-23T04:13:47.542Z,99603.00
2022-10-23T04:16:16.060Z,99601.40
2022-10-23T04:18:45.547Z,99593.00
2022-10-23T04:21:13.614Z,99581.20
2022-10-23T04:23:42.758Z,99585.80
2022-10-23T04:26:19.174Z,99589.60
2022-10-23T04:28:47.149Z,99581.80
2022-10-23T04:31:15.020Z,99571.40
2022-10-23T04:33:43.972Z,99550.80
2022-10-23T04:36:22.510Z,99554.00
2022-10-23T04:38:50.327Z,99552.20
2022-10-23T04:41:18.162Z,99542.20
2022-10-23T04:43:47.051Z,99534.00
2022-10-23T04:46:15.939Z,99526.20
2022-10-23T04:48:47.517Z,99521.20
2022-10-23T04:51:50.729Z,99516.20
2022-10-23T04:54:44.511Z,99510.00
2022-10-23T04:57:32.645Z,99509.40
2022-10-23T05:00:10.289Z,99515.40
2022-10-23T05:02:46.035Z,99509.40
2022-10-23T05:05:15.945Z,99529.00
2022-10-23T05:08:23.688Z,99575.60
2022-10-23T05:11:10.327Z,99619.20
2022-10-23T05:13:43.533Z,99551.20
2022-10-23T05:16:30.458Z,99571.40
2022-10-23T05:19:00.011Z,99569.60
2022-10-23T05:21:34.705Z,99579.00
2022-10-23T05:24:05.556Z,99590.20
2022-10-23T05:26:33.689Z,99573.60
2022-10-23T05:29:06.963Z,99577.20
2022-10-23T05:31:35.996Z,99565.20
2022-10-23T05:34:14.883Z,99577.40
2022-10-23T05:36:45.917Z,99582.20
2022-10-23T05:39:15.686Z,99589.80
2022-10-23T05:41:43.645Z,99568.40
2022-10-23T05:44:12.187Z,99534.80
2022-10-23T05:46:58.701Z,99530.80
2022-10-23T05:49:56.394Z,99582.80
2022-10-23T05:52:49.344Z,99578.00
2022-10-23T05:55:30.579Z,99565.00
2022-10-23T05:58:16.987Z,99504.40
2022-10-23T06:01:11.618Z,99488.20
2022-10-23T06:03:53.623Z,99493.40
2022-10-23T06:06:23.723Z,99463.80
2022-10-23T06:08:51.788Z,99451.40
2022-10-23T06:11:21.128Z,99458.20
2022-10-23T06:16:30.320Z,99439.00
2022-10-23T06:18:58.949Z,99429.40
2022-10-23T06:21:26.925Z,99423.00
2022-10-23T06:23:55.629Z,99437.40
2022-10-23T06:26:26.657Z,99466.60
2022-10-23T06:29:20.924Z,99471.20
2022-10-23T06:31:49.123Z,99461.40
2022-10-23T06:34:17.037Z,99457.60
2022-10-23T06:36:46.408Z,99457.40
2022-10-23T06:39:33.044Z,99459.60
2022-10-23T06:42:21.271Z,99443.00
2022-10-23T06:44:54.940Z,99442.60
2022-10-23T06:47:43.204Z,99437.80
2022-10-23T06:50:33.132Z,99440.80
2022-10-23T06:53:06.295Z,99425.80
2022-10-23T06:55:35.549Z,99397.20
2022-10-23T06:58:04.621Z,99391.40
2022-10-23T07:00:32.589Z,99388.00
2022-10-23T07:03:00.943Z,99397.00
2022-10-23T07:05:28.751Z,99401.40
2022-10-23T07:07:56.698Z,99396.60
2022-10-23T07:10:26.806Z,99406.20
2022-10-23T07:13:01.078Z,99407.00
2022-10-23T07:15:49.434Z,99405.80
2022-10-23T07:18:20.565Z,99405.80
2022-10-23T07:21:20.655Z,99425.60
2022-10-23T07:23:49.099Z,99400.60
2022-10-23T07:26:17.450Z,99386.20
2022-10-23T07:28:48.136Z,99376.20
2022-10-23T07:31:18.928Z,99382.80
2022-10-23T07:34:10.856Z,99384.40
2022-10-23T07:36:38.792Z,99374.20
2022-10-23T07:39:07.072Z,99356.60
2022-10-23T07:41:37.380Z,99351.20
2022-10-23T07:44:05.369Z,99368.40
2022-10-23T07:46:33.367Z,99402.00
2022-10-23T07:49:01.517Z,99398.00
2022-10-23T07:51:29.495Z,99422.60
2022-10-23T07:54:00.218Z,99388.60
2022-10-23T07:56:46.993Z,99413.60
2022-10-23T07:59:21.204Z,99405.00
2022-10-23T08:01:56.740Z,99403.40
2022-10-23T08:04:35.960Z,99401.00
2022-10-23T08:07:11.258Z,99390.60
2022-10-23T08:09:42.398Z,99391.20
2022-10-23T08:12:10.496Z,99386.80
2022-10-23T08:14:38.841Z,99391.40
2022-10-23T08:17:09.823Z,99384.60
2022-10-23T08:20:04.868Z,99391.40
2022-10-23T08:22:39.023Z,99394.40
2022-10-23T08:25:07.184Z,99385.80
2022-10-23T08:27:35.282Z,99377.00
2022-10-23T08:30:03.973Z,99371.80
2022-10-23T08:32:32.008Z,99369.20
2022-10-23T08:35:01.171Z,99367.80
2022-10-23T08:37:31.603Z,99365.40
2022-10-23T08:39:59.497Z,99367.20
2022-10-23T08:43:13.209Z,99362.80
2022-10-23T08:45:56.438Z,99359.20
2022-10-23T08:49:14.463Z,99350.00
2022-10-23T08:51:55.693Z,99342.00
2022-10-23T08:54:57.737Z,99332.80
2022-10-23T08:57:37.769Z,99340.20
2022-10-23T09:00:16.074Z,99351.80
2022-10-23T09:02:49.651Z,99354.20
2022-10-23T09:05:30.199Z,99357.40
2022-10-23T09:08:21.681Z,99357.40
2022-10-23T09:11:07.727Z,99358.20
2022-10-23T09:13:58.607Z,99360.80
2022-10-23T09:16:43.861Z,99361.00
2022-10-23T09:19:27.310Z,99358.20
2022-10-23T09:21:57.093Z,99349.60
2022-10-23T09:24:26.981Z,99332.80
2022-10-23T09:26:55.039Z,99349.20
2022-10-23T09:29:28.820Z,99379.80
2022-10-23T09:32:05.107Z,99388.60
2022-10-23T09:34:35.126Z,99388.40
2022-10-23T09:37:22.816Z,99384.60
2022-10-23T09:40:12.248Z,99406.80
2022-10-23T09:42:52.986Z,99389.80
2022-10-23T09:45:28.846Z,99306.00
2022-10-23T09:48:19.303Z,99255.40
2022-10-23T09:50:57.788Z,99183.60
2022-10-23T09:53:57.608Z,99158.60
2022-10-23T09:56:41.741Z,99157.00
2022-10-23T09:59:12.715Z,99154.40
2022-10-23T10:01:50.938Z,99174.00
2022-10-23T10:04:41.718Z,99197.00
2022-10-23T10:07:22.797Z,99205.60
2022-10-23T10:09:53.249Z,99201.00
2022-10-23T10:12:43.980Z,99207.80
2022-10-23T10:15:52.974Z,99209.80
2022-10-23T10:18:56.358Z,99215.80
2022-10-23T10:21:39.060Z,99213.80
2022-10-23T10:24:22.917Z,99225.20
2022-10-23T10:27:00.937Z,99235.60
2022-10-23T10:30:13.526Z,99236.80
2022-10-23T10:33:00.300Z,99248.60
2022-10-23T10:35:42.725Z,99251.80
2022-10-23T10:38:42.388Z,99247.60
2022-10-23T10:41:49.612Z,99248.20
2022-10-23T10:44:28.192Z,99245.80
2022-10-23T10:47:14.930Z,99233.60
2022-10-23T10:50:07.633Z,99217.60
2022-10-23T10:53:41.585Z,99217.60
2022-10-23T10:56:17.663Z,99216.40
2022-10-23T10:58:56.656Z,99212.40
2022-10-23T11:01:40.935Z,99213.80
2022-10-23T11:04:29.042Z,99215.20
2022-10-23T11:06:59.824Z,99211.40
2022-10-23T11:09:30.507Z,99209.80
2022-10-23T11:11:59.685Z,99216.00
2022-10-23T11:14:35.836Z,99209.40
2022-10-23T11:17:25.677Z,99213.60
2022-10-23T11:20:45.419Z,99214.00
2022-10-23T11:23:53.985Z,99209.80
2022-10-23T11:27:09.710Z,99199.40
2022-10-23T11:29:59.006Z,99194.80
2022-10-23T11:32:39.016Z,99196.20
2022-10-23T11:35:36.199Z,99192.00
2022-10-23T11:38:31.234Z,99190.40
2022-10-23T11:41:20.997Z,99183.20
2022-10-23T11:44:01.726Z,99174.20
2022-10-23T11:46:36.577Z,99176.60
2022-10-23T11:49:21.298Z,99175.60
2022-10-23T11:52:05.534Z,99175.00
2022-10-23T11:54:33.426Z,99163.20
2022-10-23T11:57:10.396Z,99163.80
2022-10-23T11:59:47.895Z,99159.80
2022-10-23T12:02:38.554Z,99161.20
2022-10-23T12:05:22.825Z,99165.00
2022-10-23T12:07:57.667Z,99156.20
2022-10-23T12:10:46.111Z,99147.20
2022-10-23T12:13:38.447Z,99142.60
2022-10-23T12:16:07.808Z,99132.80
2022-10-23T12:18:53.836Z,99131.80
2022-10-23T12:21:28.321Z,99131.80
2022-10-23T12:24:08.403Z,99128.60
2022-10-23T12:27:12.676Z,99119.20
2022-10-23T12:30:09.600Z,99114.00
2022-10-23T12:32:54.240Z,99108.20
2022-10-23T12:35:53.660Z,99098.40
2022-10-23T12:38:32.457Z,99081.60
2022-10-23T12:41:27.851Z,99074.00
2022-10-23T12:44:03.580Z,99069.20
2022-10-23T12:46:39.449Z,99070.00
2022-10-23T12:49:25.070Z,99070.60
2022-10-23T12:52:17.193Z,99065.80
2022-10-23T12:54:45.959Z,99059.20
2022-10-23T12:57:23.105Z,99059.20
2022-10-23T12:59:58.764Z,99055.60
2022-10-23T13:02:31.379Z,99050.20
2022-10-23T13:05:05.261Z,99047.80
2022-10-23T13:07:42.584Z,99040.20
2022-10-23T13:10:16.525Z,99031.00
2022-10-23T13:13:07.754Z,99028.60
2022-10-23T13:15:45.012Z,99018.60
2022-10-23T13:18:15.898Z,99017.80
2022-10-23T13:20:56.695Z,99009.60
2022-10-23T13:23:34.904Z,99002.60
2022-10-23T13:26:24.745Z,98998.60
2022-10-23T13:28:52.943Z,98993.80
2022-10-23T13:31:20.718Z,99005.20
2022-10-23T13:34:00.344Z,99005.80
2022-10-23T13:36:36.752Z,98999.00
2022-10-23T13:39:11.742Z,98984.00
2022-10-23T13:41:44.199Z,98971.80
2022-10-23T13:44:18.910Z,98976.80
2022-10-23T13:46:48.496Z,98963.80
2022-10-23T13:49:16.759Z,98961.00
2022-10-23T13:51:49.984Z,98960.20
2022-10-23T13:54:22.950Z,98964.80
2022-10-23T13:56:52.713Z,98967.60
2022-10-23T13:59:21.619Z,98963.00
2022-10-23T14:01:51.341Z,98956.60
2022-10-23T14:04:20.207Z,98951.60
2022-10-23T14:06:48.355Z,98948.20
2022-10-23T14:09:19.045Z,98951.40
2022-10-23T14:11:47.839Z,98949.80
2022-10-23T14:14:15.816Z,98944.20
2022-10-23T14:16:43.867Z,98941.20
2022-10-23T14:19:11.816Z,98944.60
2022-10-23T14:21:39.689Z,98941.40
2022-10-23T14:24:09.107Z,98932.40
2022-10-23T14:26:37.874Z,98926.60
2022-10-23T14:29:09.763Z,98912.40
2022-10-23T14:31:38.480Z,98898.60
2022-10-23T14:34:06.424Z,98889.60
2022-10-23T14:36:43.608Z,98893.00
2022-10-23T14:39:19.158Z,98890.80
2022-10-23T14:41:47.085Z,98885.00
2022-10-23T14:44:15.289Z,98875.60
2022-10-23T14:46:43.190Z,98871.00
2022-10-23T14:49:11.024Z,98867.80
2022-10-23T14:51:38.941Z,98851.60
2022-10-23T14:54:08.400Z,98838.00
2022-10-23T14:56:40.620Z,98831.20
2022-10-23T14:59:10.187Z,98833.20
2022-10-23T15:01:45.100Z,98840.20
2022-10-23T15:04:15.910Z,98849.60
2022-10-23T15:06:45.141Z,98847.60
2022-10-23T15:09:14.656Z,98841.20
2022-10-23T15:11:42.839Z,98832.60
2022-10-23T15:14:11.666Z,98835.20
2022-10-23T15:16:42.795Z,98837.00
2022-10-23T15:19:18.171Z,98845.60
2022-10-23T15:21:48.319Z,98839.00
2022-10-23T15:24:17.573Z,98833.00
2022-10-23T15:26:45.702Z,98816.60
2022-10-23T15:29:15.273Z,98809.40
2022-10-23T15:31:55.785Z,98801.20
2022-10-23T15:34:28.697Z,98812.60
2022-10-23T15:36:57.746Z,98811.60
2022-10-23T15:39:33.717Z,98802.20
2022-10-23T15:42:05.684Z,98789.40
2022-10-23T15:44:34.376Z,98786.80
2022-10-23T15:47:02.463Z,98776.00
2022-10-23T15:49:30.508Z,98781.00
2022-10-23T15:51:58.879Z,98779.80
2022-10-23T15:54:30.540Z,98779.20
2022-10-23T15:57:02.596Z,98786.80
2022-10-23T15:59:32.283Z,98783.00
2022-10-23T16:02:00.951Z,98774.20
2022-10-23T16:04:29.178Z,98763.40
2022-10-23T16:06:57.090Z,98772.40
2022-10-23T16:09:24.951Z,98764.40
2022-10-23T16:11:52.804Z,98757.40
2022-10-23T16:14:20.642Z,98765.00
2022-10-23T16:16:48.847Z,98744.00
2022-10-23T16:19:17.074Z,98841.80
2022-10-23T16:21:45.322Z,98892.40
2022-10-23T16:24:13.272Z,98859.40
2022-10-23T16:26:41.192Z,98829.20
2022-10-23T16:29:11.351Z,98820.20
2022-10-23T16:31:39.302Z,98812.80
2022-10-23T16:34:07.812Z,98807.80
2022-10-23T16:36:39.152Z,98815.60
2022-10-23T16:39:16.260Z,98815.80
2022-10-23T16:42:05.647Z,98826.80
2022-10-23T16:45:07.056Z,98813.60
2022-10-23T16:47:35.326Z,98810.20
2022-10-23T16:50:03.900Z,98808.40
2022-10-23T16:52:31.911Z,98799.80
2022-10-23T16:55:00.383Z,98789.00
2022-10-23T16:57:28.346Z,98781.60
2022-10-23T16:59:56.229Z,98789.80
2022-10-23T17:02:24.250Z,98809.20
2022-10-23T17:04:52.359Z,98803.80
2022-10-23T17:09:53.136Z,98803.20
2022-10-23T17:12:21.039Z,98806.80
2022-10-23T17:14:49.010Z,98812.00
2022-10-23T17:17:16.978Z,98812.60
2022-10-23T17:19:46.245Z,98819.20
2022-10-23T17:22:15.614Z,98825.20
2022-10-23T17:24:46.432Z,98836.40
2022-10-23T17:27:17.312Z,98845.60
2022-10-23T17:29:45.491Z,98852.80
2022-10-23T17:32:13.516Z,98858.20
2022-10-23T17:34:41.486Z,98860.00
2022-10-23T17:37:10.305Z,98861.20
2022-10-23T17:39:38.091Z,98856.20
2022-10-23T17:42:06.222Z,98861.20
2022-10-23T17:44:34.093Z,98858.20
2022-10-23T17:47:02.060Z,98862.80
2022-10-23T17:49:30.180Z,98860.00
2022-10-23T17:51:58.391Z,98860.60
2022-10-23T17:54:27.702Z,98859.40
2022-10-23T17:56:56.587Z,98857.00
2022-10-23T17:59:24.536Z,98858.60
2022-10-23T18:01:52.600Z,98853.80
2022-10-23T18:04:21.505Z,98852.80
2022-10-23T18:06:53.296Z,98851.20
2022-10-23T18:09:24.281Z,98852.40
2022-10-23T18:11:52.849Z,98849.20
2022-10-23T18:14:21.986Z,98843.00
2022-10-23T18:16:51.245Z,98837.40
2022-10-23T18:19:19.812Z,98826.60
2022-10-23T18:21:48.592Z,98825.00
2022-10-23T18:24:17.739Z,98822.80
2022-10-23T18:26:48.151Z,98820.60
2022-10-23T18:29:17.595Z,98814.20
2022-10-23T18:31:48.381Z,98810.80
2022-10-23T18:34:22.978Z,98806.20
2022-10-23T18:36:53.961Z,98815.00
2022-10-23T18:39:24.743Z,98797.80
2022-10-23T18:41:57.026Z,98807.60
2022-10-23T18:44:29.184Z,98805.20
2022-10-23T18:46:59.528Z,98805.40
2022-10-23T18:49:28.807Z,98802.20
2022-10-23T18:51:58.330Z,98804.00
2022-10-23T18:54:26.607Z,98803.00
2022-10-23T18:56:54.690Z,98803.60
2022-10-23T18:59:23.033Z,98799.80
2022-10-23T19:01:51.237Z,98802.40
2022-10-23T19:04:19.311Z,98793.60
2022-10-23T19:06:49.436Z,98790.20
2022-10-23T19:09:18.317Z,98788.60
2022-10-23T19:11:46.425Z,98792.00
2022-10-23T19:14:14.769Z,98789.40
2022-10-23T19:17:12.472Z,98786.20
2022-10-23T19:19:50.032Z,98782.00
2022-10-23T19:22:18.802Z,98781.60
2022-10-23T19:24:58.462Z,98769.40
2022-10-23T19:27:28.013Z,98772.00
2022-10-23T19:29:57.006Z,98765.60
2022-10-23T19:32:24.933Z,98765.60
2022-10-23T19:34:52.874Z,98764.40
2022-10-23T19:37:20.727Z,98766.20
2022-10-23T19:39:48.595Z,98770.20
2022-10-23T19:42:16.407Z,98768.00
2022-10-23T19:44:44.704Z,98763.20
2022-10-23T19:47:12.603Z,98773.40
2022-10-23T19:49:40.791Z,98785.80
2022-10-23T19:52:08.646Z,98783.40
2022-10-23T19:54:37.749Z,98776.20
2022-10-23T19:57:05.638Z,98769.20
2022-10-23T19:59:33.445Z,98767.80
2022-10-23T20:02:01.991Z,98770.80
2022-10-23T20:04:30.346Z,98765.60
2022-10-23T20:06:58.489Z,98765.40
2022-10-23T20:09:26.780Z,98758.00
2022-10-23T20:11:55.700Z,98751.60
2022-10-23T20:14:23.602Z,98753.20
2022-10-23T20:16:55.750Z,98743.00
2022-10-23T20:19:24.293Z,98737.20
2022-10-23T20:21:52.345Z,98732.40
2022-10-23T20:24:21.595Z,98730.40
2022-10-23T20:26:53.894Z,98724.60
2022-10-23T20:29:23.339Z,98722.80
2022-10-23T20:31:51.955Z,98724.20
2022-10-23T20:34:20.815Z,98715.40
2022-10-23T20:36:50.124Z,98715.60
2022-10-23T20:39:24.548Z,98714.40
2022-10-23T20:41:55.353Z,98714.00
2022-10-23T20:44:24.719Z,98713.00
2022-10-23T20:46:53.118Z,98709.60
2022-10-23T20:49:22.049Z,98706.20
2022-10-23T20:51:55.050Z,98703.20
2022-10-23T20:54:26.117Z,98710.20
2022-10-23T20:56:56.942Z,98708.80
2022-10-23T20:59:25.405Z,98698.00
2022-10-23T21:01:55.438Z,98696.60
2022-10-23T21:04:27.556Z,98693.00
2022-10-23T21:07:09.301Z,98681.20
2022-10-23T21:09:40.065Z,98681.80
2022-10-23T21:12:09.132Z,98674.60
2022-10-23T21:14:37.074Z,98673.00
2022-10-23T21:17:05.683Z,98678.00
2022-10-23T21:19:33.658Z,98677.00
2022-10-23T21:22:01.902Z,98680.20
2022-10-23T21:24:29.834Z,98683.00
2022-10-23T21:26:57.889Z,98695.00
2022-10-23T21:29:25.826Z,98698.80
2022-10-23T21:31:57.354Z,98699.60
2022-10-23T21:34:27.040Z,98705.00
2022-10-23T21:39:45.842Z,98702.40
2022-10-23T21:42:15.330Z,98691.80
2022-10-23T21:44:43.582Z,98693.40
2022-10-23T21:47:11.657Z,98697.00
2022-10-23T21:49:39.576Z,98687.40
2022-10-23T21:52:07.792Z,98684.60
2022-10-23T21:54:35.746Z,98667.20
2022-10-23T21:57:04.066Z,98649.80
2022-10-23T21:59:34.809Z,98641.40
2022-10-23T22:02:04.736Z,98640.60
2022-10-23T22:04:33.704Z,98638.00
2022-10-23T22:07:05.607Z,98627.60
2022-10-23T22:09:34.651Z,98624.60
2022-10-23T22:12:02.452Z,98623.20
2022-10-23T22:14:30.803Z,98621.00
2022-10-23T22:16:58.878Z,98612.60
2022-10-23T22:19:27.075Z,98617.60
2022-10-23T22:21:55.212Z,98614.40
2022-10-23T22:24:23.891Z,98615.20
2022-10-23T22:26:55.824Z,98607.80
2022-10-23T22:29:27.609Z,98602.20
2022-10-23T22:31:56.976Z,98600.20
2022-10-23T22:37:17.138Z,98603.60
2022-10-23T22:39:45.132Z,98595.00
2022-10-23T22:42:13.101Z,98594.40
2022-10-23T22:44:41.063Z,98601.40
2022-10-23T22:47:09.046Z,98604.60
2022-10-23T22:49:37.663Z,98594.60
2022-10-23T22:52:05.549Z,98585.60
2022-10-23T22:54:33.749Z,98592.40
2022-10-23T22:57:01.767Z,98586.80
2022-10-23T22:59:29.579Z,98586.80
2022-10-23T23:01:57.396Z,98583.80
2022-10-23T23:04:37.150Z,98586.60
2022-10-23T23:07:09.636Z,98580.20
2022-10-23T23:09:42.383Z,98590.80
2022-10-23T23:12:13.825Z,98574.00
2022-10-23T23:14:43.035Z,98578.60
2022-10-23T23:17:11.843Z,98571.80
2022-10-23T23:19:40.052Z,98573.20
2022-10-23T23:22:08.093Z,98572.20
2022-10-23T23:24:36.285Z,98570.80
2022-10-23T23:27:04.329Z,98561.40
2022-10-23T23:29:32.422Z,98556.00
2022-10-23T23:32:00.579Z,98555.00
2022-10-23T23:34:29.251Z,98548.20
2022-10-23T23:36:57.306Z,98546.00
2022-10-23T23:39:26.170Z,98541.60
2022-10-23T23:41:54.168Z,98529.60
2022-10-23T23:44:22.023Z,98519.00
2022-10-23T23:46:49.900Z,98516.40
2022-10-23T23:49:17.827Z,98512.00
2022-10-23T23:51:45.727Z,98508.00
2022-10-23T23:54:13.678Z,98508.20
2022-10-23T23:56:41.675Z,98507.20
2022-10-23T23:59:09.482Z,98497.20
